Time;durP1;ratioP1;P1;durP2;ratioP2;P2;SDS_P1;SDS_P2;PMS_P1;PMS_P2;Temp;Humidity;BMP_temperature;BMP_pressure;BME280_temperature;BME280_humidity;BME280_pressure;Samples;Min_cycle;Max_cycle;Signal;HPM_P1;HPM_P2
2023/08/20 00:00:30;;;;;;;;;;;24.10;99.90;;;;;;2059290;28;19918;-67
2023/08/20 00:01:30;;;;;;;;;;;24.10;99.90;;;;;;2056024;28;20549;-67
2023/08/20 00:02:32;;;;;;;;;;;24.10;99.90;;;;;;2057402;28;20016;-67
2023/08/20 00:03:32;;;;;;;;;;;24.10;99.90;;;;;;2056042;28;20004;-67
2023/08/20 00:04:35;;;;;;;;;;;24.10;99.90;;;;;;2057926;28;19977;-67
2023/08/20 00:05:36;;;;;;;;;;;24.10;99.90;;;;;;2056597;28;19921;-67
2023/08/20 00:06:36;;;;;;;;;;;24.20;99.90;;;;;;2058261;28;20377;-68
2023/08/20 00:07:37;;;;;;;;;;;24.20;99.90;;;;;;2059737;28;19917;-68
2023/08/20 00:08:38;;;;;;;;;;;24.20;99.90;;;;;;2056666;28;19914;-67
2023/08/20 00:09:38;;;;;;;;;;;24.20;99.90;;;;;;2055251;28;20415;-67
2023/08/20 00:10:38;;;;;;;;;;;24.20;99.90;;;;;;2050628;28;20008;-68
2023/08/20 00:11:39;;;;;;;;;;;24.20;99.90;;;;;;2056833;28;20377;-68
2023/08/20 00:12:40;;;;;;;;;;;24.20;99.90;;;;;;2058400;28;19922;-68
2023/08/20 00:13:40;;;;;;;;;;;24.20;99.90;;;;;;2057861;28;20032;-67
2023/08/20 00:14:54;;;;;;;;;;;24.20;99.90;;;;;;2054924;28;19926;-68
2023/08/20 00:15:54;;;;;;;;;;;24.20;99.90;;;;;;2058543;28;20464;-67
2023/08/20 00:16:55;;;;;;;;;;;24.20;99.90;;;;;;2057432;28;19917;-68
2023/08/20 00:17:56;;;;;;;;;;;24.20;99.90;;;;;;2056331;28;19994;-68
2023/08/20 00:18:56;;;;;;;;;;;24.20;99.90;;;;;;2057890;28;19925;-68
2023/08/20 00:19:57;;;;;;;;;;;24.20;99.90;;;;;;2054928;28;19920;-69
2023/08/20 00:20:58;;;;;;;;;;;24.20;99.90;;;;;;2054757;28;20012;-67
2023/08/20 00:21:58;;;;;;;;;;;24.20;99.90;;;;;;2059861;28;20004;-67
2023/08/20 00:22:59;;;;;;;;;;;24.20;99.90;;;;;;2059322;28;19914;-67
2023/08/20 00:23:59;;;;;;;;;;;24.20;99.90;;;;;;2059463;28;19940;-68
2023/08/20 00:25:00;;;;;;;;;;;24.20;99.90;;;;;;2059518;28;20272;-67
2023/08/20 00:26:02;;;;;;;;;;;24.20;99.90;;;;;;2061267;28;19984;-68
2023/08/20 00:27:02;;;;;;;;;;;24.20;99.90;;;;;;2055893;28;19918;-68
2023/08/20 00:28:03;;;;;;;;;;;24.20;99.90;;;;;;2057274;28;19940;-66
2023/08/20 00:29:04;;;;;;;;;;;24.10;99.90;;;;;;2050934;28;19960;-68
2023/08/20 00:30:05;;;;;;;;;;;24.10;99.90;;;;;;2052740;28;20158;-67
2023/08/20 00:31:05;;;;;;;;;;;24.20;99.90;;;;;;2058871;28;20834;-68
2023/08/20 00:32:06;;;;;;;;;;;24.10;99.90;;;;;;2059257;28;20385;-67
2023/08/20 00:33:06;;;;;;;;;;;24.10;99.90;;;;;;2059402;28;20307;-67
2023/08/20 00:34:07;;;;;;;;;;;24.10;99.90;;;;;;2059536;28;19914;-67
2023/08/20 00:35:08;;;;;;;;;;;24.10;99.90;;;;;;2061342;28;19918;-67
2023/08/20 00:36:10;;;;;;;;;;;24.10;99.90;;;;;;2058592;28;19914;-68
2023/08/20 00:37:10;;;;;;;;;;;24.10;99.90;;;;;;2050796;28;19962;-67
2023/08/20 00:38:11;;;;;;;;;;;24.10;99.90;;;;;;2049697;28;19918;-68
2023/08/20 00:39:12;;;;;;;;;;;24.10;99.90;;;;;;2061799;28;20065;-67
2023/08/20 00:40:12;;;;;;;;;;;24.10;99.90;;;;;;2057223;28;19940;-67
2023/08/20 00:41:13;;;;;;;;;;;24.10;99.90;;;;;;2054568;28;19918;-67
2023/08/20 00:42:15;;;;;;;;;;;24.10;99.90;;;;;;2051746;28;20456;-67
2023/08/20 00:43:15;;;;;;;;;;;24.10;99.90;;;;;;2058841;28;19925;-68
2023/08/20 00:44:16;;;;;;;;;;;24.10;99.90;;;;;;2060511;28;20087;-67
2023/08/20 00:45:16;;;;;;;;;;;24.10;99.90;;;;;;2060375;28;19918;-67
2023/08/20 00:46:18;;;;;;;;;;;24.10;99.90;;;;;;2058690;28;19971;-68
2023/08/20 00:47:19;;;;;;;;;;;24.10;99.90;;;;;;2058690;28;19921;-69
2023/08/20 00:48:19;;;;;;;;;;;24.10;99.90;;;;;;2061252;28;19918;-68
2023/08/20 00:49:20;;;;;;;;;;;24.10;99.90;;;;;;2059251;28;19941;-67
2023/08/20 00:50:20;;;;;;;;;;;24.10;99.90;;;;;;2058530;28;20055;-67
2023/08/20 00:51:22;;;;;;;;;;;24.00;99.90;;;;;;2045578;28;19957;-68
2023/08/20 00:52:22;;;;;;;;;;;24.10;99.90;;;;;;2055370;28;19924;-68
2023/08/20 00:53:23;;;;;;;;;;;24.10;99.90;;;;;;2054761;28;19944;-67
2023/08/20 00:54:24;;;;;;;;;;;24.00;99.90;;;;;;2060507;28;19929;-67
2023/08/20 00:55:24;;;;;;;;;;;24.10;99.90;;;;;;2058824;28;19949;-67
2023/08/20 00:56:25;;;;;;;;;;;24.10;99.90;;;;;;2058691;28;19976;-68
2023/08/20 00:57:27;;;;;;;;;;;24.10;99.90;;;;;;2052755;28;20491;-67
2023/08/20 00:58:27;;;;;;;;;;;24.10;99.90;;;;;;2048064;28;19922;-67
2023/08/20 00:59:32;;;;;;;;;;;24.10;99.90;;;;;;2051005;28;20325;-67
2023/08/20 01:00:32;;;;;;;;;;;24.10;99.90;;;;;;2050693;28;19918;-67
2023/08/20 01:01:33;;;;;;;;;;;24.10;99.90;;;;;;2051373;28;19925;-67
2023/08/20 01:02:34;;;;;;;;;;;24.10;99.90;;;;;;2056030;28;20273;-68
2023/08/20 01:03:34;;;;;;;;;;;24.10;99.90;;;;;;2061020;28;19945;-67
2023/08/20 01:04:35;;;;;;;;;;;24.10;99.90;;;;;;2056939;28;20404;-68
2023/08/20 01:05:40;;;;;;;;;;;24.10;99.90;;;;;;2057299;28;19918;-67
2023/08/20 01:06:50;;;;;;;;;;;24.00;99.90;;;;;;2059089;28;19917;-68
2023/08/20 01:07:51;;;;;;;;;;;24.00;99.90;;;;;;2058388;28;20332;-67
2023/08/20 01:08:56;;;;;;;;;;;24.00;99.90;;;;;;2060254;28;19918;-70
2023/08/20 01:10:12;;;;;;;;;;;24.00;99.90;;;;;;2047128;28;19924;-68
2023/08/20 01:11:17;;;;;;;;;;;24.00;99.90;;;;;;2051612;28;19927;-67
2023/08/20 01:12:19;;;;;;;;;;;24.00;99.90;;;;;;2055095;28;20012;-67
2023/08/20 01:13:19;;;;;;;;;;;24.00;99.90;;;;;;2057390;28;19913;-67
2023/08/20 01:14:20;;;;;;;;;;;24.00;99.90;;;;;;2059077;28;19924;-67
2023/08/20 01:15:21;;;;;;;;;;;24.10;99.90;;;;;;2059027;28;19914;-67
2023/08/20 01:16:21;;;;;;;;;;;24.00;99.90;;;;;;2055981;28;19957;-69
2023/08/20 01:17:22;;;;;;;;;;;24.00;99.90;;;;;;2061015;28;19922;-67
2023/08/20 01:18:23;;;;;;;;;;;24.00;99.90;;;;;;2059116;28;19918;-67
2023/08/20 01:19:24;;;;;;;;;;;24.00;99.90;;;;;;2059005;28;19922;-67
2023/08/20 01:20:26;;;;;;;;;;;24.00;99.90;;;;;;2059030;28;20316;-68
2023/08/20 01:21:37;;;;;;;;;;;24.00;99.90;;;;;;2060327;28;19928;-68
2023/08/20 01:22:44;;;;;;;;;;;24.00;99.90;;;;;;2060416;28;19980;-68
2023/08/20 01:23:54;;;;;;;;;;;24.00;99.90;;;;;;2060000;28;20219;-67
2023/08/20 01:24:54;;;;;;;;;;;24.00;99.90;;;;;;2056539;28;19915;-69
2023/08/20 01:26:13;;;;;;;;;;;24.00;99.90;;;;;;2058228;28;19917;-67
2023/08/20 01:27:35;;;;;;;;;;;24.00;99.90;;;;;;2055151;28;19917;-68
2023/08/20 01:28:35;;;;;;;;;;;24.00;99.90;;;;;;2058948;28;19937;-67
2023/08/20 01:29:37;;;;;;;;;;;24.00;99.90;;;;;;2058233;28;20004;-67
2023/08/20 01:30:38;;;;;;;;;;;24.00;99.90;;;;;;2058287;28;19918;-67
2023/08/20 01:31:39;;;;;;;;;;;24.00;99.90;;;;;;2060645;28;19924;-67
2023/08/20 01:32:43;;;;;;;;;;;24.00;99.90;;;;;;2058824;28;20433;-67
2023/08/20 01:33:46;;;;;;;;;;;24.00;99.90;;;;;;2058292;28;20310;-67
2023/08/20 01:34:48;;;;;;;;;;;24.00;99.90;;;;;;2058217;28;20008;-67
2023/08/20 01:35:49;;;;;;;;;;;24.00;99.90;;;;;;2060466;28;20012;-68
2023/08/20 01:36:51;;;;;;;;;;;24.00;99.90;;;;;;2055979;28;22359;-67
2023/08/20 01:37:52;;;;;;;;;;;24.00;99.90;;;;;;2058894;28;19952;-67
2023/08/20 01:38:52;;;;;;;;;;;23.90;99.90;;;;;;2058907;28;19940;-67
2023/08/20 01:39:53;;;;;;;;;;;23.90;99.90;;;;;;2058972;28;19922;-68
2023/08/20 01:40:53;;;;;;;;;;;24.00;99.90;;;;;;2060516;28;20297;-67
2023/08/20 01:41:55;;;;;;;;;;;24.00;99.90;;;;;;2063740;28;20412;-68
2023/08/20 01:42:55;;;;;;;;;;;23.90;99.90;;;;;;2066433;28;20008;-67
2023/08/20 01:43:56;;;;;;;;;;;23.90;99.90;;;;;;2058401;28;20000;-67
2023/08/20 01:44:56;;;;;;;;;;;23.90;99.90;;;;;;2059892;28;20438;-68
2023/08/20 01:45:57;;;;;;;;;;;23.90;99.90;;;;;;2060125;28;19914;-68
2023/08/20 01:46:57;;;;;;;;;;;23.90;99.90;;;;;;2055108;28;19922;-68
2023/08/20 01:47:58;;;;;;;;;;;23.90;99.90;;;;;;2056937;28;19918;-67
2023/08/20 01:48:59;;;;;;;;;;;23.90;99.90;;;;;;2058946;28;19918;-67
2023/08/20 01:49:59;;;;;;;;;;;23.90;99.90;;;;;;2058720;28;20026;-67
2023/08/20 01:51:00;;;;;;;;;;;23.90;99.90;;;;;;2058998;28;20364;-68
2023/08/20 01:52:00;;;;;;;;;;;23.90;99.90;;;;;;2056204;28;19917;-67
2023/08/20 01:53:02;;;;;;;;;;;23.90;99.90;;;;;;2058101;28;19956;-67
2023/08/20 01:54:04;;;;;;;;;;;23.90;99.90;;;;;;2058136;28;19925;-67
2023/08/20 01:55:04;;;;;;;;;;;23.90;99.90;;;;;;2054868;28;19960;-67
2023/08/20 01:56:10;;;;;;;;;;;23.90;99.90;;;;;;2044199;28;20318;-67
2023/08/20 01:57:11;;;;;;;;;;;23.80;99.90;;;;;;2054077;28;19921;-66
2023/08/20 01:58:11;;;;;;;;;;;23.90;99.90;;;;;;2058222;28;19953;-68
2023/08/20 01:59:12;;;;;;;;;;;23.80;99.90;;;;;;2048080;28;19914;-67
2023/08/20 02:00:13;;;;;;;;;;;23.80;99.90;;;;;;2056034;28;19984;-67
2023/08/20 02:01:16;;;;;;;;;;;23.80;99.90;;;;;;2058350;28;20459;-67
2023/08/20 02:02:17;;;;;;;;;;;23.90;99.90;;;;;;2056397;28;19921;-68
2023/08/20 02:03:17;;;;;;;;;;;23.90;99.90;;;;;;2057627;28;20024;-67
2023/08/20 02:04:18;;;;;;;;;;;23.90;99.90;;;;;;2058864;28;19941;-67
2023/08/20 02:05:18;;;;;;;;;;;23.80;99.90;;;;;;2058119;28;19996;-67
2023/08/20 02:06:19;;;;;;;;;;;23.80;99.90;;;;;;2052017;28;19926;-68
2023/08/20 02:07:19;;;;;;;;;;;23.80;99.90;;;;;;2058024;28;22794;-67
2023/08/20 02:08:20;;;;;;;;;;;23.80;99.90;;;;;;2058008;28;19992;-67
2023/08/20 02:09:21;;;;;;;;;;;23.80;99.90;;;;;;2057351;28;20170;-67
2023/08/20 02:10:21;;;;;;;;;;;23.80;99.90;;;;;;2050647;28;20058;-67
2023/08/20 02:11:22;;;;;;;;;;;23.80;99.90;;;;;;2058814;28;19953;-69
2023/08/20 02:12:22;;;;;;;;;;;23.80;99.90;;;;;;2057771;28;20553;-67
2023/08/20 02:13:23;;;;;;;;;;;23.90;99.90;;;;;;2053525;28;20017;-67
2023/08/20 02:14:23;;;;;;;;;;;23.80;99.90;;;;;;2059691;28;20110;-67
2023/08/20 02:15:24;;;;;;;;;;;23.80;99.90;;;;;;2058018;28;20005;-67
2023/08/20 02:16:24;;;;;;;;;;;23.80;99.90;;;;;;2057986;28;19964;-67
2023/08/20 02:17:25;;;;;;;;;;;23.80;99.90;;;;;;2058754;28;19917;-67
2023/08/20 02:18:25;;;;;;;;;;;23.80;99.90;;;;;;2059681;28;20616;-69
2023/08/20 02:19:26;;;;;;;;;;;23.80;99.90;;;;;;2059809;28;19922;-66
2023/08/20 02:20:26;;;;;;;;;;;23.80;99.90;;;;;;2049888;28;20459;-67
2023/08/20 02:21:28;;;;;;;;;;;23.80;99.90;;;;;;2045480;28;19925;-67
2023/08/20 02:22:29;;;;;;;;;;;23.80;99.90;;;;;;2049784;28;19938;-67
2023/08/20 02:23:30;;;;;;;;;;;23.80;99.90;;;;;;2051809;28;19918;-68
2023/08/20 02:24:30;;;;;;;;;;;23.80;99.90;;;;;;2057132;28;20438;-68
2023/08/20 02:25:31;;;;;;;;;;;23.80;99.90;;;;;;2058757;28;20293;-67
2023/08/20 02:26:31;;;;;;;;;;;23.80;99.90;;;;;;2059019;28;19913;-68
2023/08/20 02:27:32;;;;;;;;;;;23.80;99.90;;;;;;2055380;28;19913;-68
2023/08/20 02:28:32;;;;;;;;;;;23.80;99.90;;;;;;2050045;28;20416;-68
2023/08/20 02:29:33;;;;;;;;;;;23.80;99.90;;;;;;2045371;28;19925;-67
2023/08/20 02:30:38;;;;;;;;;;;23.80;99.90;;;;;;2059752;28;19937;-68
2023/08/20 02:31:40;;;;;;;;;;;23.70;99.90;;;;;;2060405;28;19949;-68
2023/08/20 02:32:40;;;;;;;;;;;23.80;99.90;;;;;;2059480;28;19972;-67
2023/08/20 02:33:41;;;;;;;;;;;23.80;99.90;;;;;;2060176;28;21638;-67
2023/08/20 02:34:41;;;;;;;;;;;23.80;99.90;;;;;;2060197;28;19925;-67
2023/08/20 02:35:42;;;;;;;;;;;23.80;99.90;;;;;;2060452;28;19914;-67
2023/08/20 02:36:42;;;;;;;;;;;23.80;99.90;;;;;;2061422;28;19983;-67
2023/08/20 02:37:43;;;;;;;;;;;23.70;99.90;;;;;;2059526;28;19960;-67
2023/08/20 02:38:46;;;;;;;;;;;23.70;99.90;;;;;;2059346;28;20463;-68
2023/08/20 02:39:46;;;;;;;;;;;23.70;99.90;;;;;;2056230;28;19918;-76
2023/08/20 02:40:47;;;;;;;;;;;23.80;99.90;;;;;;2049228;28;20391;-76
2023/08/20 02:41:47;;;;;;;;;;;23.70;99.90;;;;;;2059423;28;20459;-80
2023/08/20 02:42:48;;;;;;;;;;;23.70;99.90;;;;;;2056027;28;19918;-73
2023/08/20 02:43:48;;;;;;;;;;;23.80;99.90;;;;;;2058395;28;19948;-71
2023/08/20 02:44:49;;;;;;;;;;;23.80;99.90;;;;;;2059006;28;19924;-71
2023/08/20 02:45:50;;;;;;;;;;;23.70;99.90;;;;;;2053603;28;19949;-69
2023/08/20 02:46:52;;;;;;;;;;;23.70;99.90;;;;;;2061016;28;20513;-72
2023/08/20 02:47:52;;;;;;;;;;;23.70;99.90;;;;;;2054407;28;19939;-72
2023/08/20 02:48:53;;;;;;;;;;;23.70;99.90;;;;;;2059571;28;19910;-72
2023/08/20 02:49:54;;;;;;;;;;;23.70;99.90;;;;;;2061366;28;19925;-70
2023/08/20 02:50:55;;;;;;;;;;;23.70;99.90;;;;;;2059394;28;20413;-72
2023/08/20 02:51:55;;;;;;;;;;;23.60;99.90;;;;;;2059438;28;19988;-71
2023/08/20 02:52:56;;;;;;;;;;;23.60;99.90;;;;;;2058950;28;19918;-72
2023/08/20 02:53:56;;;;;;;;;;;23.60;99.90;;;;;;2057285;28;19917;-71
2023/08/20 02:54:57;;;;;;;;;;;23.60;99.90;;;;;;2051234;28;20026;-71
2023/08/20 02:55:57;;;;;;;;;;;23.60;99.90;;;;;;2057625;28;19921;-71
2023/08/20 02:56:58;;;;;;;;;;;23.60;99.90;;;;;;2051854;28;19949;-71
2023/08/20 02:57:59;;;;;;;;;;;23.60;99.90;;;;;;2060488;28;19969;-71
2023/08/20 02:59:00;;;;;;;;;;;23.60;99.90;;;;;;2064666;28;20024;-71
2023/08/20 03:00:00;;;;;;;;;;;23.60;99.90;;;;;;2055833;28;19925;-71
2023/08/20 03:01:01;;;;;;;;;;;23.60;99.90;;;;;;2059289;28;20581;-71
2023/08/20 03:02:03;;;;;;;;;;;23.60;99.90;;;;;;2054659;28;19914;-72
2023/08/20 03:03:07;;;;;;;;;;;23.60;99.90;;;;;;2056786;28;19914;-72
2023/08/20 03:04:07;;;;;;;;;;;23.60;99.90;;;;;;2061012;28;20001;-71
2023/08/20 03:05:09;;;;;;;;;;;23.60;99.90;;;;;;2061213;28;19914;-72
2023/08/20 03:06:10;;;;;;;;;;;23.60;99.90;;;;;;2059610;28;19918;-72
2023/08/20 03:07:10;;;;;;;;;;;23.60;99.90;;;;;;2060190;28;19914;-71
2023/08/20 03:08:11;;;;;;;;;;;23.60;99.90;;;;;;2056523;28;20472;-71
2023/08/20 03:09:11;;;;;;;;;;;23.60;99.90;;;;;;2058868;28;19953;-71
2023/08/20 03:10:12;;;;;;;;;;;23.60;99.90;;;;;;2053609;28;19921;-71
2023/08/20 03:11:12;;;;;;;;;;;23.60;99.90;;;;;;2050191;28;20331;-71
2023/08/20 03:12:13;;;;;;;;;;;23.60;99.90;;;;;;2057365;28;20373;-71
2023/08/20 03:13:14;;;;;;;;;;;23.60;99.90;;;;;;2057364;28;20382;-72
2023/08/20 03:14:14;;;;;;;;;;;23.60;99.90;;;;;;2058677;28;19918;-71
2023/08/20 03:15:15;;;;;;;;;;;23.60;99.90;;;;;;2058490;28;20000;-71
2023/08/20 03:16:15;;;;;;;;;;;23.60;99.90;;;;;;2061097;28;19917;-71
2023/08/20 03:17:16;;;;;;;;;;;23.60;99.90;;;;;;2056258;28;19914;-71
2023/08/20 03:18:16;;;;;;;;;;;23.60;99.90;;;;;;2055645;28;19914;-72
2023/08/20 03:19:17;;;;;;;;;;;23.60;99.90;;;;;;2055894;28;20016;-72
2023/08/20 03:20:18;;;;;;;;;;;23.60;99.90;;;;;;2057664;28;19918;-72
2023/08/20 03:21:18;;;;;;;;;;;23.60;99.90;;;;;;2059555;28;20048;-71
2023/08/20 03:22:19;;;;;;;;;;;23.60;99.90;;;;;;2059978;28;20270;-71
2023/08/20 03:23:19;;;;;;;;;;;23.60;99.90;;;;;;2061718;28;20220;-72
2023/08/20 03:24:20;;;;;;;;;;;23.60;99.90;;;;;;2057856;28;20447;-71
2023/08/20 03:25:20;;;;;;;;;;;23.50;99.90;;;;;;2055877;28;20396;-71
2023/08/20 03:26:21;;;;;;;;;;;23.50;99.90;;;;;;2049418;28;19957;-71
2023/08/20 03:27:21;;;;;;;;;;;23.50;99.90;;;;;;2054596;28;19914;-72
2023/08/20 03:28:22;;;;;;;;;;;23.50;99.90;;;;;;2059528;28;19924;-71
2023/08/20 03:29:22;;;;;;;;;;;23.50;99.90;;;;;;2058882;28;19982;-71
2023/08/20 03:30:25;;;;;;;;;;;23.40;99.90;;;;;;2059372;28;20045;-71
2023/08/20 03:31:25;;;;;;;;;;;23.50;99.90;;;;;;2061091;28;19922;-72
2023/08/20 03:32:26;;;;;;;;;;;23.40;99.90;;;;;;2059038;28;19925;-72
2023/08/20 03:33:26;;;;;;;;;;;23.40;99.90;;;;;;2059264;28;19914;-72
2023/08/20 03:34:27;;;;;;;;;;;23.40;99.90;;;;;;2062014;28;19913;-72
2023/08/20 03:35:28;;;;;;;;;;;23.40;99.90;;;;;;2046507;28;20147;-72
2023/08/20 03:36:28;;;;;;;;;;;23.40;99.90;;;;;;2043375;28;21077;-72
2023/08/20 03:37:30;;;;;;;;;;;23.50;99.90;;;;;;2049581;28;20001;-72
2023/08/20 03:38:31;;;;;;;;;;;23.40;99.90;;;;;;2047734;28;19914;-72
2023/08/20 03:39:32;;;;;;;;;;;23.40;99.90;;;;;;2047865;28;19925;-71
2023/08/20 03:40:34;;;;;;;;;;;23.40;99.90;;;;;;2054966;28;19918;-71
2023/08/20 03:41:35;;;;;;;;;;;23.40;99.90;;;;;;2057706;28;20400;-71
2023/08/20 03:42:35;;;;;;;;;;;23.40;99.90;;;;;;2058731;28;20004;-72
2023/08/20 03:43:36;;;;;;;;;;;23.50;99.90;;;;;;2058946;28;19925;-71
2023/08/20 03:44:36;;;;;;;;;;;23.40;99.90;;;;;;2061252;28;19925;-71
2023/08/20 03:45:37;;;;;;;;;;;23.40;99.90;;;;;;2055550;28;19913;-72
2023/08/20 03:46:37;;;;;;;;;;;23.40;99.90;;;;;;2059807;28;20396;-73
2023/08/20 03:47:38;;;;;;;;;;;23.40;99.90;;;;;;2059108;28;19935;-72
2023/08/20 03:48:38;;;;;;;;;;;23.40;99.90;;;;;;2060817;28;19936;-72
2023/08/20 03:49:39;;;;;;;;;;;23.40;99.90;;;;;;2059055;28;19914;-72
2023/08/20 03:50:41;;;;;;;;;;;23.40;99.90;;;;;;2058993;28;20019;-72
2023/08/20 03:51:42;;;;;;;;;;;23.40;99.90;;;;;;2058753;28;20301;-71
2023/08/20 03:52:43;;;;;;;;;;;23.50;99.90;;;;;;2056637;28;20017;-72
2023/08/20 03:53:43;;;;;;;;;;;23.50;99.90;;;;;;2043291;28;19914;-72
2023/08/20 03:54:45;;;;;;;;;;;23.50;99.90;;;;;;2055728;28;20006;-71
2023/08/20 03:55:49;;;;;;;;;;;23.40;99.90;;;;;;2059159;28;20057;-72
2023/08/20 03:56:50;;;;;;;;;;;23.40;99.90;;;;;;2059110;28;20321;-72
2023/08/20 03:57:50;;;;;;;;;;;23.40;99.90;;;;;;2057069;28;19984;-70
2023/08/20 03:58:51;;;;;;;;;;;23.40;99.90;;;;;;2056465;28;19921;-71
2023/08/20 03:59:51;;;;;;;;;;;23.40;99.90;;;;;;2056245;28;19918;-71
2023/08/20 04:00:51;;;;;;;;;;;23.30;99.90;;;;;;2056507;28;19921;-70
2023/08/20 04:01:52;;;;;;;;;;;23.30;99.90;;;;;;2061187;28;19969;-70
2023/08/20 04:02:52;;;;;;;;;;;23.30;99.90;;;;;;2059134;28;19925;-71
2023/08/20 04:03:53;;;;;;;;;;;23.40;99.90;;;;;;2058121;28;19913;-71
2023/08/20 04:04:54;;;;;;;;;;;23.40;99.90;;;;;;2061386;28;19957;-71
2023/08/20 04:05:54;;;;;;;;;;;23.40;99.90;;;;;;2059654;28;20285;-71
2023/08/20 04:06:55;;;;;;;;;;;23.40;99.90;;;;;;2059042;28;19925;-71
2023/08/20 04:07:55;;;;;;;;;;;23.40;99.90;;;;;;2050732;28;20378;-72
2023/08/20 04:08:56;;;;;;;;;;;23.40;99.90;;;;;;2054818;28;19914;-70
2023/08/20 04:09:56;;;;;;;;;;;23.40;99.90;;;;;;2052852;28;20008;-71
2023/08/20 04:10:57;;;;;;;;;;;23.40;99.90;;;;;;2057709;28;20199;-71
2023/08/20 04:11:57;;;;;;;;;;;23.40;99.90;;;;;;2058988;28;19917;-71
2023/08/20 04:12:58;;;;;;;;;;;23.40;99.90;;;;;;2057757;28;20439;-70
2023/08/20 04:13:59;;;;;;;;;;;23.40;99.90;;;;;;2056305;28;19914;-70
2023/08/20 04:15:00;;;;;;;;;;;23.40;99.90;;;;;;2055410;28;20274;-70
2023/08/20 04:16:00;;;;;;;;;;;23.40;99.90;;;;;;2057587;28;19965;-70
2023/08/20 04:17:01;;;;;;;;;;;23.40;99.90;;;;;;2059417;28;19921;-71
2023/08/20 04:18:01;;;;;;;;;;;23.40;99.90;;;;;;2058743;28;20406;-70
2023/08/20 04:19:03;;;;;;;;;;;23.30;99.90;;;;;;2060750;28;19914;-71
2023/08/20 04:20:07;;;;;;;;;;;23.30;99.90;;;;;;2058669;28;19952;-71
2023/08/20 04:21:08;;;;;;;;;;;23.30;99.90;;;;;;2066691;28;19917;-70
2023/08/20 04:22:09;;;;;;;;;;;23.30;99.90;;;;;;2054136;28;19918;-71
2023/08/20 04:23:09;;;;;;;;;;;23.30;99.90;;;;;;2060542;28;20660;-70
2023/08/20 04:24:10;;;;;;;;;;;23.30;99.90;;;;;;2053901;28;20313;-71
2023/08/20 04:25:11;;;;;;;;;;;23.30;99.90;;;;;;2054414;28;19973;-70
2023/08/20 04:26:13;;;;;;;;;;;23.30;99.90;;;;;;2064104;28;19913;-70
2023/08/20 04:27:13;;;;;;;;;;;23.30;99.90;;;;;;2058770;28;19914;-70
2023/08/20 04:28:16;;;;;;;;;;;23.30;99.90;;;;;;2058773;28;19988;-70
2023/08/20 04:29:17;;;;;;;;;;;23.30;99.90;;;;;;2060726;28;19918;-71
2023/08/20 04:30:17;;;;;;;;;;;23.40;99.90;;;;;;2066089;28;19921;-71
2023/08/20 04:31:18;;;;;;;;;;;23.40;99.90;;;;;;2066917;28;19953;-71
2023/08/20 04:32:25;;;;;;;;;;;23.40;99.90;;;;;;2051487;28;20269;-71
2023/08/20 04:33:26;;;;;;;;;;;23.40;99.90;;;;;;2052624;28;19918;-71
2023/08/20 04:34:26;;;;;;;;;;;23.40;99.90;;;;;;2051412;28;20301;-71
2023/08/20 04:35:28;;;;;;;;;;;23.40;99.90;;;;;;2058630;28;19988;-71
2023/08/20 04:36:29;;;;;;;;;;;23.40;99.90;;;;;;2058103;28;19913;-70
2023/08/20 04:37:29;;;;;;;;;;;23.40;99.90;;;;;;2057019;28;19924;-70
2023/08/20 04:38:31;;;;;;;;;;;23.40;99.90;;;;;;2051171;28;19949;-71
2023/08/20 04:39:33;;;;;;;;;;;23.40;99.90;;;;;;2057787;28;19920;-70
2023/08/20 04:40:33;;;;;;;;;;;23.40;99.90;;;;;;2059256;28;19914;-70
2023/08/20 04:41:34;;;;;;;;;;;23.40;99.90;;;;;;2056986;28;19921;-71
2023/08/20 04:42:34;;;;;;;;;;;23.40;99.90;;;;;;2054745;28;20436;-71
2023/08/20 04:43:35;;;;;;;;;;;23.40;99.90;;;;;;2046761;28;19926;-71
2023/08/20 04:44:36;;;;;;;;;;;23.40;99.90;;;;;;2046566;28;19918;-71
2023/08/20 04:45:37;;;;;;;;;;;23.40;99.90;;;;;;2046797;28;19914;-70
2023/08/20 04:46:37;;;;;;;;;;;23.40;99.90;;;;;;2049763;28;19928;-71
2023/08/20 04:47:38;;;;;;;;;;;23.40;99.90;;;;;;2056712;28;19932;-71
2023/08/20 04:48:39;;;;;;;;;;;23.40;99.90;;;;;;2058231;28;19992;-71
2023/08/20 04:49:40;;;;;;;;;;;23.40;99.90;;;;;;2053877;28;20070;-70
2023/08/20 04:50:40;;;;;;;;;;;23.40;99.90;;;;;;2045806;28;19924;-71
2023/08/20 04:51:41;;;;;;;;;;;23.40;99.90;;;;;;2059980;28;19973;-71
2023/08/20 04:52:42;;;;;;;;;;;23.40;99.90;;;;;;2057798;28;20389;-71
2023/08/20 04:53:43;;;;;;;;;;;23.40;99.90;;;;;;2050519;28;19987;-71
2023/08/20 04:54:43;;;;;;;;;;;23.50;99.90;;;;;;2041682;28;20456;-71
2023/08/20 04:55:44;;;;;;;;;;;23.50;99.90;;;;;;2045566;28;19954;-71
2023/08/20 04:56:44;;;;;;;;;;;23.50;99.90;;;;;;2060474;28;19913;-71
2023/08/20 04:57:45;;;;;;;;;;;23.50;99.90;;;;;;2057991;28;20344;-71
2023/08/20 04:58:46;;;;;;;;;;;23.50;99.90;;;;;;2044779;28;19918;-70
2023/08/20 04:59:50;;;;;;;;;;;23.50;99.90;;;;;;2050524;28;19918;-70
2023/08/20 05:01:06;;;;;;;;;;;23.50;99.90;;;;;;2053302;28;19918;-71
2023/08/20 05:02:08;;;;;;;;;;;23.60;99.90;;;;;;2058189;28;19917;-71
2023/08/20 05:03:14;;;;;;;;;;;23.60;99.90;;;;;;2058369;28;19918;-71
2023/08/20 05:04:15;;;;;;;;;;;23.60;99.90;;;;;;2063256;28;20004;-70
2023/08/20 05:05:16;;;;;;;;;;;23.60;99.90;;;;;;2047870;28;20055;-70
2023/08/20 05:06:17;;;;;;;;;;;23.70;99.90;;;;;;2058133;28;19921;-70
2023/08/20 05:07:17;;;;;;;;;;;23.70;99.90;;;;;;2058282;28;19922;-71
2023/08/20 05:08:18;;;;;;;;;;;23.70;99.90;;;;;;2049177;28;19954;-70
2023/08/20 05:09:19;;;;;;;;;;;23.70;99.90;;;;;;2051877;28;19977;-70
2023/08/20 05:10:20;;;;;;;;;;;23.80;99.90;;;;;;2051392;28;20008;-70
2023/08/20 05:11:20;;;;;;;;;;;23.80;99.90;;;;;;2054912;28;19977;-70
2023/08/20 05:12:21;;;;;;;;;;;23.90;99.90;;;;;;2050823;28;19918;-70
2023/08/20 05:13:21;;;;;;;;;;;23.90;99.90;;;;;;2050854;28;19960;-71
2023/08/20 05:14:24;;;;;;;;;;;23.90;99.90;;;;;;2052299;28;19929;-70
2023/08/20 05:15:25;;;;;;;;;;;23.90;99.90;;;;;;2044285;28;20340;-71
2023/08/20 05:16:25;;;;;;;;;;;23.90;99.90;;;;;;2050279;28;19922;-71
2023/08/20 05:17:26;;;;;;;;;;;24.00;99.90;;;;;;2053474;28;20547;-72
2023/08/20 05:18:26;;;;;;;;;;;24.00;99.90;;;;;;2052856;28;19933;-70
2023/08/20 05:19:28;;;;;;;;;;;24.00;99.90;;;;;;2052317;28;20036;-72
2023/08/20 05:20:29;;;;;;;;;;;24.10;99.90;;;;;;2052229;28;20469;-72
2023/08/20 05:21:29;;;;;;;;;;;24.30;99.90;;;;;;2052582;28;20491;-71
2023/08/20 05:22:30;;;;;;;;;;;24.50;99.90;;;;;;2050178;28;20146;-72
2023/08/20 05:23:31;;;;;;;;;;;24.60;99.90;;;;;;2060025;28;20348;-72
2023/08/20 05:24:31;;;;;;;;;;;24.80;99.90;;;;;;2053610;28;19929;-71
2023/08/20 05:25:32;;;;;;;;;;;24.90;99.90;;;;;;2056782;28;19913;-71
2023/08/20 05:26:33;;;;;;;;;;;25.00;99.90;;;;;;2058283;28;19918;-72
2023/08/20 05:27:34;;;;;;;;;;;25.10;99.90;;;;;;2044238;28;20308;-72
2023/08/20 05:28:34;;;;;;;;;;;25.20;99.90;;;;;;2054966;28;20003;-71
2023/08/20 05:29:36;;;;;;;;;;;25.30;99.90;;;;;;2065660;28;19964;-72
2023/08/20 05:30:37;;;;;;;;;;;25.40;99.90;;;;;;2053841;28;19914;-72
2023/08/20 05:31:38;;;;;;;;;;;25.40;99.90;;;;;;2050524;28;20327;-72
2023/08/20 05:32:38;;;;;;;;;;;25.40;99.90;;;;;;2047866;28;19918;-71
2023/08/20 05:33:39;;;;;;;;;;;25.40;99.90;;;;;;2046796;28;19956;-70
2023/08/20 05:34:40;;;;;;;;;;;25.40;99.90;;;;;;2054851;28;20670;-70
2023/08/20 05:35:41;;;;;;;;;;;25.30;99.90;;;;;;2052276;28;20342;-71
2023/08/20 05:36:41;;;;;;;;;;;25.20;99.90;;;;;;2055612;28;19976;-71
2023/08/20 05:37:42;;;;;;;;;;;25.10;99.90;;;;;;2056304;28;19924;-71
2023/08/20 05:38:43;;;;;;;;;;;25.00;99.90;;;;;;2050119;28;20385;-71
2023/08/20 05:39:44;;;;;;;;;;;25.00;99.90;;;;;;2055626;28;19913;-71
2023/08/20 05:40:45;;;;;;;;;;;25.00;99.90;;;;;;2055849;28;20401;-71
2023/08/20 05:41:45;;;;;;;;;;;24.90;99.90;;;;;;2058201;28;19929;-70
2023/08/20 05:42:46;;;;;;;;;;;24.90;99.90;;;;;;2044152;28;20009;-70
2023/08/20 05:43:46;;;;;;;;;;;24.90;99.90;;;;;;2055065;28;19917;-71
2023/08/20 05:44:47;;;;;;;;;;;24.90;99.90;;;;;;2057400;28;19922;-71
2023/08/20 05:45:52;;;;;;;;;;;24.80;99.90;;;;;;2058227;28;19918;-71
2023/08/20 05:46:56;;;;;;;;;;;24.90;99.90;;;;;;2052153;28;20382;-70
2023/08/20 05:47:59;;;;;;;;;;;24.90;99.90;;;;;;2050679;28;19914;-71
2023/08/20 05:49:00;;;;;;;;;;;24.80;99.90;;;;;;2043578;28;19958;-69
2023/08/20 05:50:04;;;;;;;;;;;24.90;99.90;;;;;;2049966;28;19922;-69
2023/08/20 05:51:06;;;;;;;;;;;24.90;99.90;;;;;;2050291;28;19952;-71
2023/08/20 05:52:07;;;;;;;;;;;24.90;99.90;;;;;;2047933;28;19919;-70
2023/08/20 05:53:08;;;;;;;;;;;24.90;99.90;;;;;;2052893;28;19993;-70
2023/08/20 05:54:09;;;;;;;;;;;24.90;99.90;;;;;;2058218;28;20365;-71
2023/08/20 05:55:10;;;;;;;;;;;24.90;99.90;;;;;;2066086;28;19926;-70
2023/08/20 05:56:11;;;;;;;;;;;24.90;99.90;;;;;;2060124;28;20060;-70